createdAt,value
2018-07-20T00:03:53.443Z,24.10
2018-07-20T00:04:58.273Z,24.10
2018-07-20T00:06:03.064Z,24.00
2018-07-20T00:07:08.001Z,24.00
2018-07-20T00:08:13.623Z,24.00
2018-07-20T00:09:18.424Z,24.00
2018-07-20T00:10:23.333Z,24.00
2018-07-20T00:11:28.143Z,24.00
2018-07-20T00:12:32.941Z,24.00
2018-07-20T00:13:37.676Z,24.00
2018-07-20T00:14:43.304Z,24.00
2018-07-20T00:15:48.068Z,24.00
2018-07-20T00:16:52.861Z,24.00
2018-07-20T00:17:58.465Z,24.00
2018-07-20T00:19:03.248Z,23.90
2018-07-20T00:20:08.281Z,24.00
2018-07-20T00:21:13.181Z,24.00
2018-07-20T00:22:17.948Z,24.00
2018-07-20T00:23:22.648Z,24.00
2018-07-20T00:24:27.495Z,24.00
2018-07-20T00:25:32.271Z,24.00
2018-07-20T00:26:37.302Z,24.00
2018-07-20T00:27:42.257Z,24.00
2018-07-20T00:28:47.924Z,24.00
2018-07-20T00:29:52.951Z,24.00
2018-07-20T00:30:57.752Z,24.00
2018-07-20T00:32:02.742Z,24.00
2018-07-20T00:33:08.118Z,24.00
2018-07-20T00:34:13.826Z,24.00
2018-07-20T00:35:18.758Z,24.00
2018-07-20T00:36:23.617Z,24.00
2018-07-20T00:37:28.617Z,24.00
2018-07-20T00:38:33.585Z,24.00
2018-07-20T00:39:38.391Z,24.00
2018-07-20T00:40:43.140Z,24.00
2018-07-20T00:41:49.093Z,24.00
2018-07-20T00:42:54.765Z,24.00
2018-07-20T00:43:59.655Z,24.00
2018-07-20T00:45:05.462Z,24.00
2018-07-20T00:46:11.393Z,24.00
2018-07-20T00:47:16.306Z,23.90
2018-07-20T00:48:21.276Z,23.90
2018-07-20T00:49:26.938Z,23.90
2018-07-20T00:50:32.802Z,23.90
2018-07-20T00:51:38.045Z,23.90
2018-07-20T00:52:43.150Z,23.90
2018-07-20T00:53:48.213Z,23.90
2018-07-20T00:54:53.023Z,23.90
2018-07-20T00:55:57.865Z,23.90
2018-07-20T00:57:03.165Z,23.90
2018-07-20T00:58:08.776Z,23.90
2018-07-20T00:59:13.702Z,23.90
2018-07-20T01:00:19.046Z,23.90
2018-07-20T01:01:23.824Z,23.90
2018-07-20T01:02:29.462Z,23.90
2018-07-20T01:03:34.370Z,23.90
2018-07-20T01:04:40.119Z,23.90
2018-07-20T01:05:45.035Z,23.90
2018-07-20T01:06:50.612Z,23.90
2018-07-20T01:07:55.436Z,23.90
2018-07-20T01:09:00.268Z,23.90
2018-07-20T01:10:07.886Z,23.90
2018-07-20T01:11:12.944Z,23.90
2018-07-20T01:12:18.571Z,23.90
2018-07-20T01:13:23.640Z,23.90
2018-07-20T01:14:33.382Z,23.90
2018-07-20T01:15:49.950Z,23.90
2018-07-20T01:16:59.782Z,23.90
2018-07-20T01:18:04.639Z,23.90
2018-07-20T01:19:10.951Z,23.80
2018-07-20T01:20:17.398Z,23.90
2018-07-20T01:21:22.441Z,23.90
2018-07-20T01:22:28.301Z,23.90
2018-07-20T01:23:33.302Z,23.90
2018-07-20T01:24:38.136Z,23.90
2018-07-20T01:25:43.172Z,23.90
2018-07-20T01:26:48.421Z,23.90
2018-07-20T01:27:53.256Z,23.90
2018-07-20T01:28:58.031Z,23.90
2018-07-20T01:30:04.664Z,23.90
2018-07-20T01:31:09.420Z,23.90
2018-07-20T01:32:16.039Z,23.90
2018-07-20T01:33:20.746Z,23.80
2018-07-20T01:34:25.494Z,23.80
2018-07-20T01:35:31.818Z,23.90
2018-07-20T01:36:37.693Z,23.80
2018-07-20T01:37:48.430Z,23.80
2018-07-20T01:38:53.995Z,23.80
2018-07-20T01:39:58.839Z,23.80
2018-07-20T01:41:03.847Z,23.80
2018-07-20T01:42:08.896Z,23.80
2018-07-20T01:43:13.794Z,23.80
2018-07-20T01:44:18.637Z,23.80
2018-07-20T01:45:23.567Z,23.80
2018-07-20T01:46:28.521Z,23.80
2018-07-20T01:47:33.484Z,23.80
2018-07-20T01:48:38.550Z,23.80
2018-07-20T01:49:43.502Z,23.80
2018-07-20T01:50:48.435Z,23.80
2018-07-20T01:51:55.515Z,23.80
2018-07-20T01:53:00.555Z,23.80
2018-07-20T01:54:05.618Z,23.80
2018-07-20T01:55:10.524Z,23.80
2018-07-20T01:56:15.369Z,23.80
2018-07-20T01:57:20.237Z,23.80
2018-07-20T01:58:25.147Z,23.80
2018-07-20T01:59:30.120Z,23.80
2018-07-20T02:00:35.116Z,23.80
2018-07-20T02:01:40.026Z,23.80
2018-07-20T02:02:45.029Z,23.80
2018-07-20T02:03:50.070Z,23.80
2018-07-20T02:04:55.003Z,23.80
2018-07-20T02:06:00.000Z,23.80
2018-07-20T02:07:07.181Z,23.80
2018-07-20T02:08:12.187Z,23.80
2018-07-20T02:09:22.713Z,23.80
2018-07-20T02:10:41.435Z,23.80
2018-07-20T02:11:47.925Z,23.80
2018-07-20T02:12:54.235Z,23.70
2018-07-20T02:13:59.302Z,23.80
2018-07-20T02:15:04.745Z,23.80
2018-07-20T02:16:10.272Z,23.80
2018-07-20T02:17:15.264Z,23.80
2018-07-20T02:18:20.216Z,23.70
2018-07-20T02:19:25.312Z,23.70
2018-07-20T02:20:30.234Z,23.70
2018-07-20T02:21:35.324Z,23.70
2018-07-20T02:22:40.340Z,23.70
2018-07-20T02:23:45.219Z,23.70
2018-07-20T02:24:50.163Z,23.70
2018-07-20T02:25:55.153Z,23.70
2018-07-20T02:27:00.143Z,23.70
2018-07-20T02:28:10.090Z,23.70
2018-07-20T02:29:16.548Z,23.70
2018-07-20T02:30:24.418Z,23.70
2018-07-20T02:31:33.305Z,23.70
2018-07-20T02:32:44.101Z,23.70
2018-07-20T02:33:49.080Z,23.70
2018-07-20T02:34:54.054Z,23.70
2018-07-20T02:35:58.965Z,23.70
2018-07-20T02:37:04.013Z,23.70
2018-07-20T02:38:09.081Z,23.70
2018-07-20T02:39:14.164Z,23.70
2018-07-20T02:40:19.303Z,23.70
2018-07-20T02:41:24.264Z,23.70
2018-07-20T02:42:29.317Z,23.70
2018-07-20T02:43:34.957Z,23.70
2018-07-20T02:44:41.983Z,23.70
2018-07-20T02:45:50.669Z,23.70
2018-07-20T02:46:58.818Z,23.70
2018-07-20T02:48:05.414Z,23.70
2018-07-20T02:49:10.472Z,23.70
2018-07-20T02:50:15.748Z,23.70
2018-07-20T02:51:20.832Z,23.70
2018-07-20T02:52:25.886Z,23.70
2018-07-20T02:53:30.786Z,23.70
2018-07-20T02:54:35.799Z,23.70
2018-07-20T02:55:40.988Z,23.70
2018-07-20T02:56:46.708Z,23.60
2018-07-20T02:57:51.744Z,23.70
2018-07-20T02:58:57.591Z,23.70
2018-07-20T03:00:02.624Z,23.60
2018-07-20T03:01:07.628Z,23.60
2018-07-20T03:02:12.782Z,23.60
2018-07-20T03:03:22.246Z,23.60
2018-07-20T03:04:27.897Z,23.60
2018-07-20T03:05:34.482Z,23.60
2018-07-20T03:06:41.427Z,23.60
2018-07-20T03:07:48.358Z,23.60
2018-07-20T03:08:56.332Z,23.60
2018-07-20T03:10:02.879Z,23.60
2018-07-20T03:11:12.610Z,23.60
2018-07-20T03:12:19.581Z,23.60
2018-07-20T03:13:26.490Z,23.60
2018-07-20T03:14:33.104Z,23.60
2018-07-20T03:15:37.956Z,23.60
2018-07-20T03:16:43.204Z,23.60
2018-07-20T03:17:48.079Z,23.60
2018-07-20T03:18:53.087Z,23.60
2018-07-20T03:19:58.673Z,23.60
2018-07-20T03:21:04.369Z,23.60
2018-07-20T03:22:09.133Z,23.60
2018-07-20T03:23:18.019Z,23.60
2018-07-20T03:26:08.435Z,23.60
2018-07-20T03:27:13.245Z,23.60
2018-07-20T03:28:18.040Z,23.60
2018-07-20T03:29:22.801Z,23.50
2018-07-20T03:30:28.710Z,23.50
2018-07-20T03:31:33.836Z,23.50
2018-07-20T03:32:38.682Z,23.50
2018-07-20T03:33:43.482Z,23.50
2018-07-20T03:34:48.438Z,23.50
2018-07-20T03:35:53.512Z,23.50
2018-07-20T03:36:58.364Z,23.50
2018-07-20T03:38:03.392Z,23.50
2018-07-20T03:39:08.283Z,23.50
2018-07-20T03:40:14.344Z,23.50
2018-07-20T03:41:19.723Z,23.50
2018-07-20T03:42:25.048Z,23.50
2018-07-20T03:43:30.359Z,23.50
2018-07-20T03:44:35.294Z,23.50
2018-07-20T03:45:40.358Z,23.50
2018-07-20T03:46:45.391Z,23.50
2018-07-20T03:47:50.311Z,23.50
2018-07-20T03:48:55.105Z,23.50
2018-07-20T03:49:59.881Z,23.50
2018-07-20T03:51:04.981Z,23.50
2018-07-20T03:52:09.934Z,23.50
2018-07-20T03:53:14.634Z,23.50
2018-07-20T03:54:19.719Z,23.50
2018-07-20T03:55:24.657Z,23.50
2018-07-20T03:56:29.669Z,23.50
2018-07-20T04:01:53.411Z,23.50
2018-07-20T04:02:58.200Z,23.50
2018-07-20T04:04:03.213Z,23.50
2018-07-20T04:05:08.629Z,23.50
2018-07-20T04:06:13.388Z,23.50
2018-07-20T04:07:18.378Z,23.50
2018-07-20T04:08:23.291Z,23.50
2018-07-20T04:09:28.120Z,23.50
2018-07-20T04:10:33.121Z,23.50
2018-07-20T04:11:37.935Z,23.50
2018-07-20T04:12:42.801Z,23.50
2018-07-20T04:13:47.438Z,23.50
2018-07-20T04:14:52.311Z,23.50
2018-07-20T04:15:57.102Z,23.50
2018-07-20T04:17:01.797Z,23.50
2018-07-20T04:18:06.813Z,23.50
2018-07-20T04:19:11.585Z,23.50
2018-07-20T04:20:16.433Z,23.50
2018-07-20T04:21:21.237Z,23.50
2018-07-20T04:22:26.211Z,23.50
2018-07-20T04:23:31.142Z,23.50
2018-07-20T04:24:36.069Z,23.50
2018-07-20T04:25:40.865Z,23.50
2018-07-20T04:26:45.703Z,23.50
2018-07-20T04:27:50.705Z,23.50
2018-07-20T04:28:55.615Z,23.50
2018-07-20T04:30:00.659Z,23.50
2018-07-20T04:31:05.451Z,23.50
2018-07-20T04:32:10.404Z,23.50
2018-07-20T04:33:15.157Z,23.50
2018-07-20T04:34:19.968Z,23.50
2018-07-20T04:35:24.921Z,23.50
2018-07-20T04:36:30.328Z,23.50
2018-07-20T04:37:35.194Z,23.50
2018-07-20T04:38:40.179Z,23.50
2018-07-20T04:39:45.193Z,23.50
2018-07-20T04:40:49.982Z,23.50
2018-07-20T04:41:54.742Z,23.50
2018-07-20T04:42:59.632Z,23.50
2018-07-20T04:44:04.522Z,23.50
2018-07-20T04:45:09.441Z,23.50
2018-07-20T04:46:14.228Z,23.50
2018-07-20T04:47:19.118Z,23.50
2018-07-20T04:48:23.986Z,23.50
2018-07-20T04:49:28.893Z,23.50
2018-07-20T04:50:33.963Z,23.50
2018-07-20T04:51:39.015Z,23.50
2018-07-20T04:52:43.880Z,23.50
2018-07-20T04:53:48.957Z,23.50
2018-07-20T04:54:53.767Z,23.50
2018-07-20T04:55:58.772Z,23.50
2018-07-20T04:57:03.729Z,23.50
2018-07-20T04:58:08.486Z,23.50
2018-07-20T04:59:13.408Z,23.50
2018-07-20T05:00:18.566Z,23.50
2018-07-20T05:01:23.771Z,23.50
2018-07-20T05:02:28.962Z,23.50
2018-07-20T05:03:33.941Z,23.50
2018-07-20T05:04:38.912Z,23.50
2018-07-20T05:05:43.678Z,23.50
2018-07-20T05:06:49.034Z,23.50
2018-07-20T05:07:54.044Z,23.50
2018-07-20T05:08:58.905Z,23.50
2018-07-20T05:10:03.711Z,23.50
2018-07-20T05:11:08.442Z,23.60
2018-07-20T05:12:13.348Z,23.60
2018-07-20T05:13:18.120Z,23.60
2018-07-20T05:14:23.145Z,23.60
2018-07-20T05:15:27.862Z,23.60
2018-07-20T05:16:32.832Z,23.60
2018-07-20T05:17:37.913Z,23.60
2018-07-20T05:18:42.873Z,23.60
2018-07-20T05:19:47.861Z,23.60
2018-07-20T05:20:52.692Z,23.60
2018-07-20T05:21:57.583Z,23.60
2018-07-20T05:23:02.641Z,23.60
2018-07-20T05:24:07.671Z,23.60
2018-07-20T05:25:12.529Z,23.60
2018-07-20T05:26:17.421Z,23.50
2018-07-20T05:27:22.246Z,23.60
2018-07-20T05:28:27.254Z,23.60
2018-07-20T05:29:32.340Z,23.60
2018-07-20T05:30:38.083Z,23.60
2018-07-20T05:31:43.143Z,23.60
2018-07-20T05:32:48.104Z,23.60
2018-07-20T05:33:52.944Z,23.60
2018-07-20T05:34:58.231Z,23.60
2018-07-20T05:36:03.026Z,23.60
2018-07-20T05:37:07.984Z,23.60
2018-07-20T05:38:13.085Z,23.60
2018-07-20T05:39:18.082Z,23.60
2018-07-20T05:40:23.145Z,23.60
2018-07-20T05:41:27.992Z,23.60
2018-07-20T05:42:32.954Z,23.60
2018-07-20T05:43:37.867Z,23.60
2018-07-20T05:44:42.857Z,23.60
2018-07-20T05:45:48.629Z,23.60
2018-07-20T05:46:55.071Z,23.60
2018-07-20T05:48:00.057Z,23.60
2018-07-20T05:49:04.845Z,23.50
2018-07-20T05:50:09.891Z,23.60
2018-07-20T05:51:15.437Z,23.60
2018-07-20T05:52:20.392Z,23.60
2018-07-20T05:53:25.330Z,23.60
2018-07-20T05:54:32.827Z,23.70
2018-07-20T05:55:38.568Z,23.70
2018-07-20T05:56:43.367Z,23.70
2018-07-20T05:57:48.255Z,23.70
2018-07-20T05:58:52.979Z,23.70
2018-07-20T05:59:57.978Z,23.70
2018-07-20T06:01:03.224Z,23.70
2018-07-20T06:02:08.491Z,23.70
2018-07-20T06:03:18.099Z,23.60
2018-07-20T06:04:22.888Z,23.70
2018-07-20T06:05:28.244Z,23.70
2018-07-20T06:06:33.259Z,23.70
2018-07-20T06:07:38.176Z,23.70
2018-07-20T06:08:42.976Z,23.70
2018-07-20T06:09:47.788Z,23.70
2018-07-20T06:10:52.517Z,23.70
2018-07-20T06:11:57.484Z,23.70
2018-07-20T06:13:02.241Z,23.70
2018-07-20T06:14:07.035Z,23.70
2018-07-20T06:15:11.926Z,23.70
2018-07-20T06:16:16.834Z,23.70
2018-07-20T06:17:22.111Z,23.70
2018-07-20T06:18:27.114Z,23.70
2018-07-20T06:19:32.318Z,23.70
2018-07-20T06:20:37.461Z,23.70
2018-07-20T06:21:42.549Z,23.70
2018-07-20T06:22:47.450Z,23.70
2018-07-20T06:23:52.550Z,23.70
2018-07-20T06:24:57.537Z,23.70
2018-07-20T06:26:02.414Z,23.70
2018-07-20T06:27:07.449Z,23.70
2018-07-20T06:28:12.520Z,23.70
2018-07-20T06:29:17.463Z,23.70
2018-07-20T06:30:22.510Z,23.70
2018-07-20T06:31:27.495Z,23.70
2018-07-20T06:32:32.358Z,23.70
2018-07-20T06:33:37.360Z,23.70
2018-07-20T06:34:42.321Z,23.70
2018-07-20T06:35:47.116Z,23.70
2018-07-20T06:36:52.064Z,23.70
2018-07-20T06:37:57.029Z,23.70
2018-07-20T06:39:02.292Z,23.70
2018-07-20T06:40:07.322Z,23.70
2018-07-20T06:41:12.181Z,23.70
2018-07-20T06:42:17.095Z,23.70
2018-07-20T06:43:22.176Z,23.70
2018-07-20T06:44:33.071Z,23.70
2018-07-20T06:45:40.099Z,23.80
2018-07-20T06:46:44.994Z,23.70
2018-07-20T06:47:49.877Z,23.80
2018-07-20T06:48:55.288Z,23.80
2018-07-20T06:50:00.153Z,23.80
2018-07-20T06:51:05.126Z,23.80
2018-07-20T06:52:09.922Z,23.80
2018-07-20T06:53:15.446Z,23.80
2018-07-20T06:54:20.383Z,23.90
2018-07-20T06:55:25.277Z,23.90
2018-07-20T06:56:29.995Z,23.90
2018-07-20T06:57:35.055Z,23.90
2018-07-20T06:58:39.785Z,23.90
2018-07-20T06:59:44.621Z,23.90
2018-07-20T07:00:49.471Z,23.90
2018-07-20T07:01:54.396Z,23.90
2018-07-20T07:02:59.125Z,23.90
2018-07-20T07:04:04.245Z,23.90
2018-07-20T07:05:09.209Z,23.90
2018-07-20T07:06:14.229Z,23.90
2018-07-20T07:07:19.197Z,23.90
2018-07-20T07:08:24.125Z,23.90
2018-07-20T07:09:29.113Z,23.90
2018-07-20T07:10:34.021Z,24.00
2018-07-20T07:11:39.051Z,23.90
2018-07-20T07:12:43.781Z,23.90
2018-07-20T07:13:48.605Z,24.00
2018-07-20T07:14:53.568Z,24.00
2018-07-20T07:15:58.384Z,24.00
2018-07-20T07:17:03.264Z,24.00
2018-07-20T07:18:08.080Z,24.00
2018-07-20T07:19:12.743Z,23.90
2018-07-20T07:20:17.531Z,23.90
2018-07-20T07:21:22.271Z,23.90
2018-07-20T07:22:27.018Z,23.90
2018-07-20T07:23:31.973Z,23.90
2018-07-20T07:24:36.850Z,23.90
2018-07-20T07:25:41.716Z,23.90
2018-07-20T07:26:46.429Z,23.90
2018-07-20T07:27:51.300Z,23.90
2018-07-20T07:28:56.226Z,23.90
2018-07-20T07:30:01.265Z,23.90
2018-07-20T07:31:06.258Z,23.90
2018-07-20T07:32:11.155Z,23.90
2018-07-20T07:33:16.239Z,23.90
2018-07-20T07:34:21.346Z,23.90
2018-07-20T07:35:26.395Z,23.90
2018-07-20T07:36:31.440Z,23.90
2018-07-20T07:37:36.459Z,23.90
2018-07-20T07:38:41.387Z,23.90
2018-07-20T07:39:46.306Z,23.90
2018-07-20T07:40:51.331Z,23.90
2018-07-20T07:41:56.210Z,23.90
2018-07-20T07:43:01.296Z,23.90
2018-07-20T07:44:06.464Z,23.90
2018-07-20T07:45:11.495Z,23.90
2018-07-20T07:46:16.324Z,23.90
2018-07-20T07:47:21.160Z,23.90
2018-07-20T07:48:26.138Z,23.90
2018-07-20T07:49:31.078Z,23.90
2018-07-20T07:50:35.909Z,23.90
2018-07-20T07:51:40.776Z,23.90
2018-07-20T07:52:46.120Z,23.90
2018-07-20T07:53:50.846Z,23.90
2018-07-20T07:54:56.003Z,23.90
2018-07-20T07:56:00.948Z,23.90
2018-07-20T07:57:06.039Z,23.90
2018-07-20T07:58:10.820Z,23.90
2018-07-20T07:59:15.744Z,23.90
2018-07-20T08:00:20.612Z,23.90
2018-07-20T08:01:25.914Z,23.90
2018-07-20T08:02:30.692Z,23.90
2018-07-20T08:03:35.766Z,23.90
2018-07-20T08:04:40.454Z,23.90
2018-07-20T08:05:45.200Z,23.90
2018-07-20T08:06:50.048Z,23.90
2018-07-20T08:07:55.046Z,23.90
2018-07-20T08:09:00.062Z,23.90
2018-07-20T08:10:05.030Z,23.90
2018-07-20T08:11:09.819Z,23.90
2018-07-20T08:12:14.798Z,23.90
2018-07-20T08:13:19.593Z,23.90
2018-07-20T08:14:24.634Z,23.90
2018-07-20T08:15:29.536Z,23.90
2018-07-20T08:16:34.244Z,23.90
2018-07-20T08:17:39.170Z,23.90
2018-07-20T08:18:44.077Z,23.90
2018-07-20T08:19:48.863Z,23.90
2018-07-20T08:20:53.705Z,24.00
2018-07-20T08:21:58.533Z,23.90
2018-07-20T08:23:03.617Z,23.90
2018-07-20T08:24:08.699Z,23.90
2018-07-20T08:25:13.808Z,23.90
2018-07-20T08:26:18.935Z,23.90
2018-07-20T08:27:23.942Z,23.90
2018-07-20T08:28:29.049Z,23.90
2018-07-20T08:29:34.004Z,23.90
2018-07-20T08:30:38.902Z,23.90
2018-07-20T08:31:43.791Z,24.00
2018-07-20T08:32:48.906Z,24.00
2018-07-20T08:33:53.726Z,24.00
2018-07-20T08:34:58.704Z,24.00
2018-07-20T08:36:03.624Z,24.00
2018-07-20T08:37:08.452Z,24.00
2018-07-20T08:38:13.903Z,24.00
2018-07-20T08:39:18.804Z,24.00
2018-07-20T08:40:23.752Z,24.00
2018-07-20T08:41:28.633Z,24.00
2018-07-20T08:42:33.595Z,24.00
2018-07-20T08:43:38.525Z,24.00
2018-07-20T08:44:43.560Z,24.00
2018-07-20T08:45:48.635Z,24.00
2018-07-20T08:46:53.637Z,24.00
2018-07-20T08:47:58.675Z,24.00
2018-07-20T08:49:03.512Z,24.00
2018-07-20T08:50:08.495Z,24.10
2018-07-20T08:51:13.497Z,24.10
2018-07-20T08:52:18.405Z,24.10
2018-07-20T08:53:23.332Z,24.10
2018-07-20T08:54:28.269Z,24.10
2018-07-20T08:55:33.057Z,24.10
2018-07-20T08:56:38.021Z,24.10
2018-07-20T08:57:42.843Z,24.10
2018-07-20T08:58:48.015Z,24.10
2018-07-20T08:59:52.765Z,24.10
2018-07-20T09:00:57.801Z,24.10
2018-07-20T09:02:02.870Z,24.10
2018-07-20T09:03:08.001Z,24.10
2018-07-20T09:04:13.010Z,24.10
2018-07-20T09:05:18.325Z,24.20
2018-07-20T09:06:23.434Z,24.20
2018-07-20T09:07:28.477Z,24.20
2018-07-20T09:08:33.433Z,24.20
2018-07-20T09:09:38.265Z,24.20
2018-07-20T09:10:43.392Z,24.20
2018-07-20T09:11:48.888Z,24.20
2018-07-20T09:12:53.735Z,24.30
2018-07-20T09:13:58.561Z,24.20
2018-07-20T09:15:03.543Z,24.20
2018-07-20T09:16:08.310Z,24.20
2018-07-20T09:17:13.148Z,24.20
2018-07-20T09:18:18.201Z,24.20
2018-07-20T09:19:23.017Z,24.20
2018-07-20T09:20:28.122Z,24.20
2018-07-20T09:21:33.147Z,24.20
2018-07-20T09:22:38.171Z,24.20
2018-07-20T09:23:43.164Z,24.20
2018-07-20T09:24:48.072Z,24.20
2018-07-20T09:25:53.056Z,24.20
2018-07-20T09:26:58.118Z,24.20
2018-07-20T09:28:03.423Z,24.20
2018-07-20T09:29:08.613Z,24.20
2018-07-20T09:30:13.625Z,24.20
2018-07-20T09:31:18.601Z,24.20
2018-07-20T09:32:23.861Z,24.20
2018-07-20T09:33:28.839Z,24.20
2018-07-20T09:34:33.825Z,24.20
2018-07-20T09:35:38.847Z,24.20
2018-07-20T09:36:43.614Z,24.20
2018-07-20T09:37:48.658Z,24.20
2018-07-20T09:38:54.468Z,24.20
2018-07-20T09:39:59.518Z,24.10
2018-07-20T09:41:04.564Z,24.10
2018-07-20T09:42:09.439Z,24.10
2018-07-20T09:43:14.574Z,24.20
2018-07-20T09:44:19.581Z,24.20
2018-07-20T09:45:24.546Z,24.20
2018-07-20T09:46:29.623Z,24.20
2018-07-20T09:47:34.693Z,24.20
2018-07-20T09:48:39.551Z,24.20
2018-07-20T09:49:44.610Z,24.20
2018-07-20T09:50:49.525Z,24.20
2018-07-20T09:51:54.462Z,24.20
2018-07-20T09:52:59.377Z,24.20
2018-07-20T09:54:04.466Z,24.20
2018-07-20T09:55:09.477Z,24.20
2018-07-20T09:56:14.507Z,24.20
2018-07-20T09:57:19.537Z,24.20
2018-07-20T09:58:24.516Z,24.20
2018-07-20T09:59:29.505Z,24.20
2018-07-20T10:00:34.483Z,24.20
2018-07-20T10:01:39.523Z,24.20
2018-07-20T10:02:44.568Z,24.20
2018-07-20T10:03:49.369Z,24.20
2018-07-20T10:04:54.228Z,24.20
2018-07-20T10:05:59.271Z,24.20
2018-07-20T10:07:04.484Z,24.20
2018-07-20T10:08:09.569Z,24.20
2018-07-20T10:09:14.401Z,24.20
2018-07-20T10:10:19.300Z,24.10
2018-07-20T10:11:24.335Z,24.20
2018-07-20T10:12:29.460Z,24.20
2018-07-20T10:13:34.316Z,24.20
2018-07-20T10:14:39.238Z,24.20
2018-07-20T10:15:44.384Z,24.20
2018-07-20T10:16:49.537Z,24.20
2018-07-20T10:17:54.681Z,24.10
2018-07-20T10:18:59.708Z,24.20
2018-07-20T10:20:04.713Z,24.20
2018-07-20T10:21:09.640Z,24.20
2018-07-20T10:22:14.591Z,24.20
2018-07-20T10:23:19.409Z,24.20
2018-07-20T10:24:24.482Z,24.20
2018-07-20T10:25:29.434Z,24.20
2018-07-20T10:26:34.348Z,24.20
2018-07-20T10:27:39.301Z,24.20
2018-07-20T10:28:44.050Z,24.10
2018-07-20T10:29:48.872Z,24.20
2018-07-20T10:30:53.863Z,24.20
2018-07-20T10:31:58.683Z,24.10
2018-07-20T10:33:03.626Z,24.10
2018-07-20T10:34:08.368Z,24.10
2018-07-20T10:35:13.334Z,24.10
2018-07-20T10:36:18.067Z,24.10
2018-07-20T10:37:22.835Z,24.20
2018-07-20T10:38:27.719Z,24.20
2018-07-20T10:39:32.543Z,24.10
2018-07-20T10:40:37.691Z,24.20
2018-07-20T10:41:42.704Z,24.10
2018-07-20T10:42:47.723Z,24.20
2018-07-20T10:43:52.708Z,24.20
2018-07-20T10:44:57.790Z,24.20
2018-07-20T10:46:02.807Z,24.20
2018-07-20T10:47:07.795Z,24.10
2018-07-20T10:48:12.840Z,24.20
2018-07-20T10:49:17.643Z,24.20
2018-07-20T10:50:22.702Z,24.20
2018-07-20T10:51:27.542Z,24.20
2018-07-20T10:52:37.147Z,24.20
2018-07-20T10:53:42.020Z,24.20
2018-07-20T10:54:46.989Z,24.20
2018-07-20T10:55:51.879Z,24.20
2018-07-20T10:56:56.954Z,24.20
2018-07-20T10:58:01.933Z,24.20
2018-07-20T10:59:06.877Z,24.20
2018-07-20T11:00:11.678Z,24.10
2018-07-20T11:01:16.719Z,24.20
2018-07-20T11:02:21.535Z,24.20
2018-07-20T11:03:26.472Z,24.20
2018-07-20T11:04:31.666Z,24.20
2018-07-20T11:05:36.618Z,24.20
2018-07-20T11:06:41.803Z,24.20
2018-07-20T11:07:46.947Z,24.20
2018-07-20T11:08:52.062Z,24.20
2018-07-20T11:09:56.855Z,24.20
2018-07-20T11:11:01.818Z,24.20
2018-07-20T11:12:06.847Z,24.20
2018-07-20T11:13:11.911Z,24.20
2018-07-20T11:14:16.799Z,24.20
2018-07-20T11:15:21.558Z,24.20
2018-07-20T11:16:26.684Z,24.20
2018-07-20T11:17:31.595Z,24.20
2018-07-20T11:18:36.589Z,24.20
2018-07-20T11:19:41.626Z,24.20
2018-07-20T11:20:46.639Z,24.20
2018-07-20T11:21:51.427Z,24.20
2018-07-20T11:22:56.499Z,24.20
2018-07-20T11:24:01.501Z,24.20
2018-07-20T11:25:06.606Z,24.20
2018-07-20T11:26:11.717Z,24.20
2018-07-20T11:27:16.833Z,24.20
2018-07-20T11:28:21.756Z,24.20
2018-07-20T11:29:26.950Z,24.20
2018-07-20T11:30:32.058Z,24.20
2018-07-20T11:31:37.224Z,24.20
2018-07-20T11:32:42.243Z,24.20
2018-07-20T11:33:47.446Z,24.20
2018-07-20T11:34:52.393Z,24.20
2018-07-20T11:35:57.390Z,24.20
2018-07-20T11:37:02.238Z,24.20
2018-07-20T11:38:07.055Z,24.20
2018-07-20T11:39:11.943Z,24.20
2018-07-20T11:40:17.065Z,24.20
2018-07-20T11:41:22.087Z,24.20
2018-07-20T11:42:27.095Z,24.20
2018-07-20T11:43:32.010Z,24.20
2018-07-20T11:44:37.086Z,24.20
2018-07-20T11:45:41.845Z,24.20
2018-07-20T11:46:46.636Z,24.20
2018-07-20T11:47:51.640Z,24.20
2018-07-20T11:48:56.672Z,24.20
2018-07-20T11:50:02.248Z,24.20
2018-07-20T11:51:08.845Z,24.20
2018-07-20T11:52:13.821Z,24.20
2018-07-20T11:53:18.555Z,24.20
2018-07-20T11:54:23.570Z,24.20
2018-07-20T11:55:28.534Z,24.20
2018-07-20T11:56:33.433Z,24.20
2018-07-20T11:57:38.922Z,24.20
2018-07-20T11:59:03.511Z,24.20
2018-07-20T12:00:10.213Z,24.20
2018-07-20T12:02:48.199Z,24.20
2018-07-20T12:05:52.858Z,24.20
2018-07-20T12:06:57.811Z,24.20
2018-07-20T12:08:02.632Z,24.20
2018-07-20T12:09:07.824Z,24.30
2018-07-20T12:10:16.385Z,24.20
2018-07-20T12:11:23.338Z,24.20
2018-07-20T12:13:51.568Z,24.20
2018-07-20T12:14:56.375Z,24.20
2018-07-20T12:16:01.215Z,24.20
2018-07-20T12:17:06.115Z,24.20
2018-07-20T12:18:11.107Z,24.20
2018-07-20T12:19:16.082Z,24.20
2018-07-20T12:20:20.929Z,24.20
2018-07-20T12:21:25.923Z,24.20
2018-07-20T12:22:30.682Z,24.20
2018-07-20T12:23:35.540Z,24.20
2018-07-20T12:24:40.368Z,24.20
2018-07-20T12:25:45.171Z,24.20
2018-07-20T12:26:49.955Z,24.20
2018-07-20T12:27:54.900Z,24.20
2018-07-20T12:28:59.621Z,24.20
2018-07-20T12:30:04.392Z,24.20
2018-07-20T12:31:09.593Z,24.20
2018-07-20T12:32:14.459Z,24.20
2018-07-20T12:33:19.157Z,24.20
2018-07-20T12:34:24.083Z,24.20
2018-07-20T12:35:29.074Z,24.20
2018-07-20T12:36:34.012Z,24.20
2018-07-20T12:37:38.758Z,24.20
2018-07-20T12:38:43.652Z,24.20
2018-07-20T12:39:48.362Z,24.20
2018-07-20T12:40:53.131Z,24.20
2018-07-20T12:41:57.878Z,24.20
2018-07-20T12:43:02.655Z,24.20
2018-07-20T12:44:07.517Z,24.20
2018-07-20T12:45:12.255Z,24.20
2018-07-20T12:46:17.096Z,24.30
2018-07-20T12:47:21.809Z,24.20
2018-07-20T12:48:26.662Z,24.20
2018-07-20T12:49:31.552Z,24.20
2018-07-20T12:50:36.478Z,24.20
2018-07-20T12:51:41.457Z,24.20
2018-07-20T12:52:46.347Z,24.20
2018-07-20T12:53:51.272Z,24.20
2018-07-20T12:54:56.176Z,24.20
2018-07-20T12:56:01.159Z,24.20
2018-07-20T12:57:06.218Z,24.20
2018-07-20T12:58:10.991Z,24.30
2018-07-20T12:59:15.767Z,24.20
2018-07-20T13:00:20.677Z,24.20
2018-07-20T13:01:25.711Z,24.20
2018-07-20T13:02:30.705Z,24.30
2018-07-20T13:03:35.615Z,24.20
2018-07-20T13:04:40.824Z,24.20
2018-07-20T13:05:45.805Z,24.20
2018-07-20T13:06:50.787Z,24.20
2018-07-20T13:07:55.598Z,24.20
2018-07-20T13:09:00.572Z,24.30
2018-07-20T13:10:05.400Z,24.30
2018-07-20T13:11:10.361Z,24.30
2018-07-20T13:12:15.337Z,24.30
2018-07-20T13:13:20.082Z,24.30
2018-07-20T13:14:25.277Z,24.30
2018-07-20T13:15:30.357Z,24.40
2018-07-20T13:16:35.503Z,24.30
2018-07-20T13:17:40.240Z,24.30
2018-07-20T13:18:45.233Z,24.30
2018-07-20T13:19:50.233Z,24.30
2018-07-20T13:20:55.037Z,24.30
2018-07-20T13:21:59.851Z,24.30
2018-07-20T13:23:05.056Z,24.30
2018-07-20T13:24:09.943Z,24.30
2018-07-20T13:25:15.084Z,24.30
2018-07-20T13:26:19.958Z,24.30
2018-07-20T13:27:25.457Z,24.30
2018-07-20T13:28:30.400Z,24.30
2018-07-20T13:29:35.326Z,24.30
2018-07-20T13:30:40.184Z,24.30
2018-07-20T13:31:45.114Z,24.30
2018-07-20T13:32:49.903Z,24.30
2018-07-20T13:33:54.887Z,24.30
2018-07-20T13:34:59.670Z,24.30
2018-07-20T13:36:04.454Z,24.30
2018-07-20T13:37:09.273Z,24.30
2018-07-20T13:38:14.463Z,24.30
2018-07-20T13:39:19.187Z,24.30
2018-07-20T13:40:24.105Z,24.30
2018-07-20T13:41:28.873Z,24.30
2018-07-20T13:42:33.723Z,24.30
2018-07-20T13:43:38.404Z,24.30
2018-07-20T13:44:43.187Z,24.30
2018-07-20T13:45:47.994Z,24.30
2018-07-20T13:46:52.810Z,24.30
2018-07-20T13:47:57.777Z,24.30
2018-07-20T13:49:03.129Z,24.30
2018-07-20T13:50:08.240Z,24.30
2018-07-20T13:51:13.045Z,24.30
2018-07-20T13:52:18.995Z,24.30
2018-07-20T13:53:24.826Z,24.30
2018-07-20T13:54:29.802Z,24.30
2018-07-20T13:55:34.615Z,24.30
2018-07-20T13:56:39.792Z,24.30
2018-07-20T13:57:44.857Z,24.30
2018-07-20T13:58:49.676Z,24.30
2018-07-20T13:59:54.652Z,24.30
2018-07-20T14:00:59.727Z,24.30
2018-07-20T14:02:04.742Z,24.30
2018-07-20T14:03:09.727Z,24.30
2018-07-20T14:04:14.949Z,24.30
2018-07-20T14:05:19.774Z,24.30
2018-07-20T14:06:24.641Z,24.30
2018-07-20T14:07:29.756Z,24.30
2018-07-20T14:08:34.777Z,24.30
2018-07-20T14:09:39.692Z,24.30
2018-07-20T14:10:44.577Z,24.30
2018-07-20T14:11:49.414Z,24.30
2018-07-20T14:12:54.335Z,24.30
2018-07-20T14:13:59.149Z,24.30